»·PEaware :: AMF1954 KVCV-KLAS

AMF1954 :: KVCV-KLAS

FLIGHT INFORMATION

Flight Status: Arrived
Operator: Ameriflight
More flights by this operator :: More flights under this callsign
Pilot: Ryan M. (28536)
Aircraft: BEECH AIRCRAFT A90-E90 KING AIR
(BE9L)
More flights by this aircraft type
Origin: KVCV Socal Logistics
United States
Destination: KLAS McCarran Intl
United States
More flights between these airports :: More routes between these airports
Route: +HELDE V12 BASAL DAG CLARR CLARR3
File this flight plan on PilotEdge
Remarks:
Altitude:
(Current/Filed)
12,000ft
Speed:
(Current/Filed)
180kts
Departed: 24-Mar-20 05:33 PM
Arrived: 24-Mar-20 06:34 PM
Distance/Time
Traveled:
140nm/1:01
Distance/Time
To Go:
Arrived

Flight Plot

Page will automatically refresh every two minutes.

Flight plan parsing failed; only flown route is shown


Map Options




Map Legend


Flown Route
Filed Route
Departure Airport
Arrival Airport
Navaid (VOR, NDB)
Fix

Horizontal Profiles

Position Reports

Time Latitude Longitude Heading Altitude Ground
Speed
24-Mar-20 17:20 34.584518 -117.381391 321 2887ft 6kts
24-Mar-20 17:21 34.584737 -117.381620 321 2887ft 0kts
24-Mar-20 17:22 34.584737 -117.381620 321 2887ft 0kts
24-Mar-20 17:23 34.584743 -117.381626 321 2887ft 0kts
24-Mar-20 17:24 34.584743 -117.381626 321 2887ft 0kts
24-Mar-20 17:25 34.584743 -117.381626 321 2887ft 0kts
24-Mar-20 17:26 34.584743 -117.381626 321 2887ft 0kts
24-Mar-20 17:27 34.584743 -117.381626 321 2887ft 0kts
24-Mar-20 17:28 34.584743 -117.381626 321 2887ft 0kts
24-Mar-20 17:29 34.586033 -117.380927 45 2887ft 18kts
24-Mar-20 17:30 34.590807 -117.375275 43 2887ft 37kts
24-Mar-20 17:31 34.595159 -117.372905 295 2887ft 0kts
24-Mar-20 17:32 34.585602 -117.384159 220 3034ft 110kts
24-Mar-20 17:33 34.572641 -117.418010 256 4487ft 118kts
24-Mar-20 17:34 34.563991 -117.460216 260 5799ft 145kts
24-Mar-20 17:35 34.574284 -117.495134 5 7598ft 118kts
24-Mar-20 17:36 34.602470 -117.472381 39 8909ft 127kts
24-Mar-20 17:37 34.632452 -117.454932 35 10252ft 125kts
24-Mar-20 17:38 34.658314 -117.425460 32 11429ft 130kts
24-Mar-20 17:39 34.687253 -117.399831 39 12606ft 132kts
24-Mar-20 17:40 34.709705 -117.364300 90 13012ft 157kts
24-Mar-20 17:41 34.713308 -117.307037 90 13203ft 179kts
24-Mar-20 17:42 34.714605 -117.243722 75 13133ft 191kts
24-Mar-20 17:43 34.725088 -117.177117 86 13111ft 195kts
24-Mar-20 17:44 34.733952 -117.110281 81 13016ft 207kts
24-Mar-20 17:45 34.737479 -117.039288 88 12986ft 211kts
24-Mar-20 17:46 34.747083 -116.969110 80 13014ft 211kts
24-Mar-20 17:47 34.754210 -116.898216 81 13034ft 212kts
24-Mar-20 17:48 34.779738 -116.835091 51 12938ft 214kts
24-Mar-20 17:49 34.815826 -116.777637 45 12943ft 212kts
24-Mar-20 17:50 34.855052 -116.723882 48 12874ft 215kts
24-Mar-20 17:51 34.894453 -116.669846 50 12890ft 213kts
24-Mar-20 17:52 34.934570 -116.618521 49 12975ft 212kts
24-Mar-20 17:53 34.972795 -116.563607 46 12940ft 213kts
24-Mar-20 17:54 35.015382 -116.513199 44 13009ft 209kts
24-Mar-20 17:55 35.056498 -116.461716 43 12933ft 213kts
24-Mar-20 17:56 35.098038 -116.409730 46 12885ft 214kts
24-Mar-20 17:57 35.138990 -116.356962 45 12859ft 213kts
24-Mar-20 17:58 35.178718 -116.304532 42 12934ft 209kts
24-Mar-20 17:59 35.220235 -116.255494 49 13100ft 205kts
24-Mar-20 18:00 35.262096 -116.205386 43 13027ft 210kts
24-Mar-20 18:01 35.299514 -116.154893 46 12991ft 204kts
24-Mar-20 18:02 35.340311 -116.103638 46 12987ft 208kts
24-Mar-20 18:03 35.380719 -116.051812 49 13054ft 208kts
24-Mar-20 18:04 35.421213 -115.999976 45 13084ft 208kts
24-Mar-20 18:05 35.463750 -115.950085 48 13037ft 212kts
24-Mar-20 18:06 35.505456 -115.896838 47 12891ft 215kts
24-Mar-20 18:07 35.546702 -115.844656 42 12975ft 209kts
24-Mar-20 18:08 35.586886 -115.792015 51 12927ft 213kts
24-Mar-20 18:09 35.627850 -115.739659 41 12951ft 213kts
24-Mar-20 18:10 35.669471 -115.687677 44 12982ft 210kts
24-Mar-20 18:11 35.709589 -115.635307 51 12936ft 215kts
24-Mar-20 18:12 35.751327 -115.585980 27 13134ft 209kts
24-Mar-20 18:13 35.788171 -115.528652 54 12954ft 211kts
24-Mar-20 18:14 35.822340 -115.467235 56 11756ft 219kts
24-Mar-20 18:15 35.854722 -115.406275 55 10306ft 208kts
24-Mar-20 18:17 35.887579 -115.348223 55 8647ft 203kts
24-Mar-20 18:18 35.920508 -115.292127 50 7942ft 203kts
24-Mar-20 18:19 35.952354 -115.239437 52 8111ft 181kts
24-Mar-20 18:20 35.982815 -115.189242 56 7930ft 194kts
24-Mar-20 18:21 35.992389 -115.123614 94 6947ft 194kts
24-Mar-20 18:22 35.987717 -115.059761 91 5377ft 161kts
24-Mar-20 18:23 35.989701 -115.007104 85 5110ft 157kts
24-Mar-20 18:24 35.994264 -114.952436 87 5087ft 159kts
24-Mar-20 18:25 35.997029 -114.896961 84 4813ft 172kts
24-Mar-20 18:26 36.003548 -114.838488 48 5120ft 176kts
24-Mar-20 18:27 36.048564 -114.834963 325 5088ft 161kts
24-Mar-20 18:28 36.069437 -114.882763 278 4919ft 170kts
24-Mar-20 18:29 36.073567 -114.938527 270 4984ft 166kts
24-Mar-20 18:30 36.073751 -114.992618 272 4203ft 153kts
24-Mar-20 18:31 36.074219 -115.043284 273 3553ft 144kts
24-Mar-20 18:32 36.073953 -115.089292 268 2716ft 132kts
24-Mar-20 18:33 36.073652 -115.132665 269 2189ft 110kts
24-Mar-20 18:33 36.074652 -115.138713 63 2184ft 0kts
24-Mar-20 18:35 36.074779 -115.138396 63 2184ft 0kts
24-Mar-20 18:36 36.076437 -115.137971 1 2184ft 24kts
24-Mar-20 18:36 36.077528 -115.138903 271 2184ft 2kts
24-Mar-20 18:37 36.077543 -115.143217 272 2184ft 41kts
24-Mar-20 18:39 36.078042 -115.162202 267 2184ft 44kts
24-Mar-20 18:40 36.078008 -115.163851 264 2184ft 1kts
24-Mar-20 18:40 36.078216 -115.170821 331 2184ft 24kts

Navigation Log

Ident Type
Flight plan parsing failed, navigation log unavailable